Christian Radich — LJLM — position and weather

sailwx.info

Track history (hours):
 
Tides and Currents Weather Stations Pressure Air Temp Water Temp Dewpoint Dewpoint Depression Visibility Wind Speed Wind Dir Waves Ship Positions

Christian Radich (Norway)

Last reported at 2017-Jun-26 15:27 UTC. Time now 2017-Jun-27 10:24 UTC.
Position N 55°28' E 006°29'.

Length 73 m; draft 5 m.

Type: Sailing vessel. MMSI: 258373000.

Date/timePositionNaut miles runAvg speedWind from/ knotsBaromVisibWave heightAir tempDewpointWater temp
2017-Jun-26 15:27N 55°28' E 006°29'4 7.9
2017-Jun-26 14:59N 55°25' E 006°26'8 8.3
2017-Jun-26 14:00N 55°18' E 006°18'4 7.5
2017-Jun-26 13:30N 55°15' E 006°15'109 7.1
2017-Jun-25 22:03N 53°38' E 004°48'0 4.4
2017-Jun-25 21:57N 53°37' E 004°48'2 4.0
2017-Jun-25 21:30N 53°36' E 004°47'2 3.9
2017-Jun-25 20:59N 53°34' E 004°47'2 3.9
2017-Jun-25 20:30N 53°32' E 004°46'2 3.7
2017-Jun-25 20:00N 53°30' E 004°45'2 3.9
2017-Jun-25 19:28N 53°28' E 004°44'3 6.8
2017-Jun-25 19:00N 53°25' E 004°43'4 7.8
2017-Jun-25 18:30N 53°21' E 004°40'4 8.3
2017-Jun-25 18:00N 53°18' E 004°37'5 8.7
2017-Jun-25 17:29N 53°14' E 004°34'15 9.0
2017-Jun-25 15:48N 52°59' E 004°26'2 7.6
2017-Jun-25 15:31N 52°57' E 004°28'4 7.5
2017-Jun-25 15:01N 52°55' E 004°32'3 6.7
2017-Jun-25 14:31N 52°53' E 004°37'6 5.8
2017-Jun-25 13:31N 52°58' E 004°42'2 4.6
2017-Jun-25 13:01N 52°58' E 004°46'1 2.4
2017-Jun-25 12:31N 52°59' E 004°47'1 1.0
2017-Jun-25 12:00N 52°59' E 004°48'2 3.2
2017-Jun-25 11:29N 52°58' E 004°47'0 0.1
2017-Jun-25 11:00N 52°58' E 004°47'0 0.0
2017-Jun-25 10:30N 52°58' E 004°47'0 0.0
2017-Jun-25 10:00N 52°58' E 004°47'0 0.0
2017-Jun-25 09:30N 52°58' E 004°47'0 0.0
2017-Jun-25 08:58N 52°58' E 004°47'0 0.0
2017-Jun-25 08:28N 52°58' E 004°47'0 0.0
2017-Jun-25 07:59N 52°58' E 004°47'0 0.0
2017-Jun-25 07:29N 52°58' E 004°47'0 0.0
2017-Jun-25 06:59N 52°58' E 004°47'0 0.0
2017-Jun-25 06:29N 52°58' E 004°47'0 0.0
2017-Jun-25 06:00N 52°58' E 004°47'0 0.0
2017-Jun-25 05:30N 52°58' E 004°47'0 0.0
2017-Jun-25 05:00N 52°58' E 004°47'0 0.0
2017-Jun-25 04:28N 52°58' E 004°47'0 0.0
2017-Jun-25 03:55N 52°58' E 004°47'0 0.0
2017-Jun-25 03:28N 52°58' E 004°47'0 0.0
2017-Jun-25 02:59N 52°58' E 004°47'0 0.0
2017-Jun-25 02:29N 52°58' E 004°47'0 0.0
2017-Jun-25 01:59N 52°58' E 004°47'0 0.0
2017-Jun-25 01:30N 52°58' E 004°47'0 0.0
2017-Jun-25 01:00N 52°58' E 004°47'0 0.0
2017-Jun-25 00:30N 52°58' E 004°47'0 0.0
2017-Jun-24 23:58N 52°58' E 004°47'0 0.0
2017-Jun-24 23:28N 52°58' E 004°47'0 0.0
2017-Jun-24 22:58N 52°58' E 004°47'0 0.0
2017-Jun-24 22:29N 52°58' E 004°47'0 0.0
2017-Jun-24 21:59N 52°58' E 004°47'0 0.0
2017-Jun-24 21:29N 52°58' E 004°47'0 0.0
2017-Jun-24 21:00N 52°58' E 004°47'0 0.0
2017-Jun-24 20:30N 52°58' E 004°47'0 0.0
2017-Jun-24 20:00N 52°58' E 004°47'0 0.0
2017-Jun-24 19:28N 52°58' E 004°47'0 0.0
2017-Jun-24 18:58N 52°58' E 004°47'0 0.0
2017-Jun-24 18:28N 52°58' E 004°47'0 0.0
2017-Jun-24 17:59N 52°58' E 004°47'0 0.0
2017-Jun-24 17:29N 52°58' E 004°47'0 0.0
2017-Jun-24 16:56N 52°58' E 004°47'0 0.0
2017-Jun-24 16:30N 52°58' E 004°47'0 0.0
2017-Jun-24 16:00N 52°58' E 004°47'0 0.0
2017-Jun-24 15:27N 52°58' E 004°47'0 0.0
2017-Jun-24 15:00N 52°58' E 004°47'0 0.0
2017-Jun-24 13:58N 52°58' E 004°47'0 0.0
2017-Jun-24 13:28N 52°58' E 004°47'0 0.0
2017-Jun-24 12:59N 52°58' E 004°47'0 0.0
2017-Jun-24 12:29N 52°58' E 004°47'0 0.0
2017-Jun-24 11:59N 52°58' E 004°47'0 0.0
2017-Jun-24 11:30N 52°58' E 004°47'0 0.0
2017-Jun-24 11:00N 52°58' E 004°47'0 0.0
2017-Jun-24 10:30N 52°58' E 004°47'0 0.0
2017-Jun-24 09:58N 52°58' E 004°47'0 0.0
2017-Jun-24 09:28N 52°58' E 004°47'0 0.0
2017-Jun-24 08:58N 52°58' E 004°47'0 0.0
2017-Jun-24 08:29N 52°58' E 004°47'0 0.0
2017-Jun-24 07:59N 52°58' E 004°47'0 0.0
2017-Jun-24 07:29N 52°58' E 004°47'0 0.0
2017-Jun-24 06:59N 52°58' E 004°47'0 0.0
2017-Jun-24 06:29N 52°58' E 004°47'0 0.0
2017-Jun-24 05:59N 52°58' E 004°47'0 0.0
2017-Jun-24 05:30N 52°58' E 004°47'0 0.0
2017-Jun-24 05:00N 52°58' E 004°47'0 0.0
2017-Jun-24 04:30N 52°58' E 004°47'0 0.0
2017-Jun-24 03:58N 52°58' E 004°47'0 0.0
2017-Jun-24 03:28N 52°58' E 004°47'0 0.0
2017-Jun-24 02:58N 52°58' E 004°47'0 0.0
2017-Jun-24 02:29N 52°58' E 004°47'0 0.0
2017-Jun-24 01:59N 52°58' E 004°47'0 0.0
2017-Jun-24 01:29N 52°58' E 004°47'0 0.0
2017-Jun-24 01:00N 52°58' E 004°47'0 0.0
2017-Jun-24 00:30N 52°58' E 004°47'0 0.0
2017-Jun-24 00:00N 52°58' E 004°47'0 0.0
2017-Jun-23 23:28N 52°58' E 004°47'0 0.0
2017-Jun-23 22:58N 52°58' E 004°47'0 0.0
2017-Jun-23 22:28N 52°58' E 004°47'0 0.0
2017-Jun-23 21:59N 52°58' E 004°47'0 0.0
2017-Jun-23 21:29N 52°58' E 004°47'0 0.0
2017-Jun-23 20:59N 52°58' E 004°47'0 0.0
2017-Jun-23 20:30N 52°58' E 004°47'0 0.0
2017-Jun-23 19:57N 52°58' E 004°47'0 0.0
2017-Jun-23 19:30N 52°58' E 004°47'0 0.0
2017-Jun-23 18:58N 52°58' E 004°47'0 0.0
2017-Jun-23 18:28N 52°58' E 004°47'0 0.0
2017-Jun-23 17:58N 52°58' E 004°47'0 0.0
2017-Jun-23 17:29N 52°58' E 004°47'0 0.0
2017-Jun-23 16:59N 52°58' E 004°47'0 0.0
2017-Jun-23 16:29N 52°58' E 004°47'0 0.0
2017-Jun-23 16:00N 52°58' E 004°47'0 0.0
2017-Jun-23 15:30N 52°58' E 004°47'0 0.0
2017-Jun-23 15:00N 52°58' E 004°47'0 0.0
2017-Jun-23 13:58N 52°58' E 004°47'0 0.0
2017-Jun-23 13:28N 52°58' E 004°47'0 0.0
2017-Jun-23 12:58N 52°58' E 004°47'0 0.0
2017-Jun-23 12:29N 52°58' E 004°47'0 0.0
2017-Jun-23 11:59N 52°58' E 004°47'0 0.0
2017-Jun-23 11:29N 52°58' E 004°47'0 0.0
2017-Jun-23 11:00N 52°58' E 004°47'0 0.0
2017-Jun-23 10:30N 52°58' E 004°47'0 0.0
2017-Jun-23 10:00N 52°58' E 004°47'0 0.0
2017-Jun-23 09:28N 52°58' E 004°47'0 0.0
2017-Jun-23 08:58N 52°58' E 004°47'0 0.0
2017-Jun-23 08:28N 52°58' E 004°47'0 0.0
2017-Jun-23 07:59N 52°58' E 004°47'0 0.0
2017-Jun-23 07:29N 52°58' E 004°47'0 0.0
2017-Jun-23 06:59N 52°58' E 004°47'0 0.0
2017-Jun-23 06:30N 52°58' E 004°47'0 0.0
2017-Jun-23 06:00N 52°58' E 004°47'0 0.0
2017-Jun-23 05:30N 52°58' E 004°47'0 0.0
2017-Jun-23 04:58N 52°58' E 004°47'0 0.0
2017-Jun-23 04:28N 52°58' E 004°47'0 0.0
2017-Jun-23 03:58N 52°58' E 004°47'0 0.0
2017-Jun-23 03:29N 52°58' E 004°47'0 0.0
2017-Jun-23 02:59N 52°58' E 004°47'0 0.0
2017-Jun-23 02:29N 52°58' E 004°47'0 0.0
2017-Jun-23 02:00N 52°58' E 004°47'0 0.0
2017-Jun-23 01:30N 52°58' E 004°47'0 0.0
2017-Jun-23 01:00N 52°58' E 004°47'0 0.0
2017-Jun-23 00:30N 52°58' E 004°47'0 0.0
2017-Jun-22 23:58N 52°58' E 004°47'0 0.0
2017-Jun-22 23:28N 52°58' E 004°47'0 0.0
2017-Jun-22 22:58N 52°58' E 004°47'0 0.0
2017-Jun-22 22:29N 52°58' E 004°47'0 0.0
2017-Jun-22 21:59N 52°58' E 004°47'0 0.0
2017-Jun-22 21:29N 52°58' E 004°47'0 0.0
2017-Jun-22 21:00N 52°58' E 004°47'0 0.0
2017-Jun-22 20:30N 52°58' E 004°47'0 0.0
2017-Jun-22 20:00N 52°58' E 004°47'0 0.0
2017-Jun-22 19:28N 52°58' E 004°47'0 0.0
2017-Jun-22 18:58N 52°58' E 004°47'0 0.0
2017-Jun-22 18:25N 52°58' E 004°47'0 0.0
2017-Jun-22 17:59N 52°58' E 004°47'0 0.0
2017-Jun-22 17:29N 52°58' E 004°47'0 0.0
2017-Jun-22 16:59N 52°58' E 004°47'0 0.0
2017-Jun-22 16:30N 52°58' E 004°47'0 0.0
2017-Jun-22 16:00N 52°58' E 004°47'0 0.0
2017-Jun-22 15:30N 52°58' E 004°47'0 0.0
2017-Jun-22 14:58N 52°58' E 004°47'0 0.0
2017-Jun-22 14:28N 52°58' E 004°47'0 0.0
2017-Jun-22 13:31N 52°58' E 004°47'0 0.5
2017-Jun-22 13:01N 52°58' E 004°47'2 4.4
2017-Jun-22 12:31N 52°60' E 004°49'1 1.9
2017-Jun-22 12:00N 53°00' E 004°50'0 0.1
2017-Jun-22 11:28N 53°00' E 004°50'0 0.0
2017-Jun-22 10:58N 53°00' E 004°50'0 0.0
2017-Jun-22 10:28N 53°00' E 004°50'0 0.0
2017-Jun-22 09:59N 53°00' E 004°50'0 0.0
2017-Jun-22 09:29N 53°00' E 004°50'0 0.0
2017-Jun-22 08:59N 53°00' E 004°50'0 0.0
2017-Jun-22 08:30N 53°00' E 004°50'0 0.0
2017-Jun-22 08:00N 53°00' E 004°50'0 0.1
2017-Jun-22 07:30N 53°00' E 004°50'0 0.1
2017-Jun-22 07:01N 53°00' E 004°50'2 3.0
2017-Jun-22 06:30N 52°59' E 004°48'4 7.2
2017-Jun-22 06:00N 52°58' E 004°42'2 4.6
2017-Jun-22 05:30N 52°56' E 004°40'2 4.3
2017-Jun-22 05:00N 52°54' E 004°39'2 3.5
2017-Jun-22 04:31N 52°53' E 004°36'2 4.4
2017-Jun-22 04:00N 52°55' E 004°33'3 5.4
2017-Jun-22 03:31N 52°58' E 004°32'3 5.1
2017-Jun-22 03:00N 53°00' E 004°32'3 5.4
2017-Jun-22 02:31N 53°03' E 004°31'3 5.5
2017-Jun-22 02:00N 53°06' E 004°31'2 4.4
2017-Jun-22 01:30N 53°07' E 004°29'2 3.1
2017-Jun-22 01:00N 53°08' E 004°27'1 2.6
2017-Jun-22 00:31N 53°10' E 004°26'2 5.0
2017-Jun-22 00:00N 53°12' E 004°28'2 4.8
2017-Jun-21 23:30N 53°14' E 004°29'2 4.6
2017-Jun-21 23:00N 53°16' E 004°30'2 4.6
2017-Jun-21 22:31N 53°19' E 004°32'2 4.6
2017-Jun-21 22:00N 53°21' E 004°33'3 5.0
2017-Jun-21 21:30N 53°23' E 004°34'3 5.0
2017-Jun-21 21:00N 53°25' E 004°35'3 6.2
2017-Jun-21 20:30N 53°29' E 004°36'3 6.3
2017-Jun-21 20:00N 53°32' E 004°37'3 6.5
2017-Jun-21 19:30N 53°35' E 004°39'3 6.4
2017-Jun-21 19:00N 53°37' E 004°43'3 6.3
2017-Jun-21 18:30N 53°40' E 004°45'3 6.3
2017-Jun-21 18:00N 53°43' E 004°47'4 6.2
2017-Jun-21 17:26N 53°46' E 004°48'3 6.1
2017-Jun-21 17:00N 53°49' E 004°50'17 6.1
2017-Jun-21 14:16N 54°05' E 004°57'4 5.2
2017-Jun-21 13:30N 54°09' E 004°58'7 5.1
2017-Jun-21 12:04N 54°16' E 005°02'40 5.7
2017-Jun-21 05:06N 54°55' E 005°15'1 6.4
2017-Jun-21 05:00N 54°55' E 005°15'3 5.3
2017-Jun-21 04:30N 54°58' E 005°15'1 2.7
2017-Jun-21 04:00N 54°59' E 005°16'1 1.9
2017-Jun-21 03:30N 55°00' E 005°16'1 2.1
2017-Jun-21 03:00N 55°01' E 005°17'172 4.9
2017-Jun-19 16:10N 57°46' E 006°48'1 4.9
2017-Jun-19 15:58N 57°47' E 006°49'3 5.1
2017-Jun-19 15:28N 57°49' E 006°52'2 4.4
2017-Jun-19 15:00N 57°51' E 006°54'3 5.3
2017-Jun-19 14:30N 57°53' E 006°56'8 8.1
2017-Jun-19 13:30N 57°54' E 007°11'5 8.2
2017-Jun-19 12:51N 57°54' E 007°22'3 8.3
2017-Jun-19 12:29N 57°55' E 007°27'4 8.2
2017-Jun-19 12:00N 57°55' E 007°35'4 7.9
2017-Jun-19 11:29N 57°55' E 007°42'4 7.8
2017-Jun-19 11:00N 57°56' E 007°49'4 7.8
2017-Jun-19 10:30N 57°57' E 007°56'4 8.0
2017-Jun-19 10:00N 57°59' E 008°03'4 8.2
2017-Jun-19 09:30N 58°00' E 008°10'4 8.2
2017-Jun-19 09:00N 58°02' E 008°17'4 8.5
2017-Jun-19 08:31N 58°06' E 008°22'4 8.8
2017-Jun-19 08:01N 58°09' E 008°27'4 8.8
2017-Jun-19 07:30N 58°12' E 008°33'5 9.1
2017-Jun-19 07:00N 58°16' E 008°38'5 9.3
2017-Jun-19 06:30N 58°19' E 008°44'5 9.4
2017-Jun-19 06:00N 58°23' E 008°50'5 9.5
2017-Jun-19 05:30N 58°26' E 008°56'5 9.5
2017-Jun-19 05:00N 58°30' E 009°02'5 9.4
2017-Jun-19 04:30N 58°33' E 009°08'5 9.3
2017-Jun-19 04:01N 58°37' E 009°14'5 9.1
2017-Jun-19 03:30N 58°40' E 009°20'4 7.9
2017-Jun-19 03:00N 58°43' E 009°26'3 7.0
2017-Jun-19 02:30N 58°44' E 009°32'4 7.0
2017-Jun-19 02:00N 58°45' E 009°38'3 6.9
2017-Jun-19 01:30N 58°47' E 009°45'3 6.7
2017-Jun-19 01:00N 58°48' E 009°51'3 6.9
2017-Jun-19 00:30N 58°49' E 009°57'4 8.0
2017-Jun-19 00:00N 58°51' E 010°04'4 8.7
2017-Jun-18 23:30N 58°53' E 010°11'4 8.1
2017-Jun-18 23:00N 58°54' E 010°18'3 6.9
2017-Jun-18 22:30N 58°56' E 010°24'3 6.6
2017-Jun-18 22:00N 58°58' E 010°29'3 6.6
2017-Jun-18 21:30N 59°00' E 010°34'3 6.8
2017-Jun-18 21:01N 59°04' E 010°36'3 7.0
2017-Jun-18 20:31N 59°07' E 010°38'4 7.3
2017-Jun-18 20:01N 59°11' E 010°38'4 8.1
2017-Jun-18 19:30N 59°15' E 010°37'4 8.0
2017-Jun-18 19:00N 59°18' E 010°36'4 8.0
2017-Jun-18 18:30N 59°22' E 010°34'4 7.8
2017-Jun-18 18:00N 59°26' E 010°33'3 6.9
2017-Jun-18 17:30N 59°30' E 010°34'4 7.2
2017-Jun-18 17:00N 59°33' E 010°37'4 7.6
2017-Jun-18 16:30N 59°37' E 010°37'4 7.9
2017-Jun-18 16:00N 59°41' E 010°37'4 7.9
2017-Jun-18 15:30N 59°45' E 010°35'4 7.0
2017-Jun-18 15:00N 59°48' E 010°34'6 5.5
2017-Jun-18 14:00N 59°53' E 010°40'3 5.2
2017-Jun-18 13:30N 59°54' E 010°44'0 0.2
2017-Jun-18 12:59N 59°54' E 010°44'0 0.0
2017-Jun-18 12:30N 59°54' E 010°44'0 0.0
2017-Jun-18 12:00N 59°54' E 010°44'0 0.0
2017-Jun-18 11:30N 59°54' E 010°44'0 0.0
2017-Jun-18 10:58N 59°54' E 010°44'0 0.0
2017-Jun-18 10:28N 59°54' E 010°44'0 0.0
2017-Jun-18 09:58N 59°54' E 010°44'0 0.0
2017-Jun-18 09:29N 59°54' E 010°44'0 0.0
2017-Jun-18 08:59N 59°54' E 010°44'0 0.0
2017-Jun-18 08:29N 59°54' E 010°44'0 0.0
2017-Jun-18 08:00N 59°54' E 010°44'0 0.0
2017-Jun-18 07:30N 59°54' E 010°44'0 0.0
2017-Jun-18 07:00N 59°54' E 010°44'0 0.0
2017-Jun-18 06:28N 59°54' E 010°44'0 0.0
2017-Jun-18 05:58N 59°54' E 010°44'0 0.0
2017-Jun-18 05:28N 59°54' E 010°44'0 0.0
2017-Jun-18 04:59N 59°54' E 010°44'0 0.0
2017-Jun-18 04:29N 59°54' E 010°44'0 0.0
2017-Jun-18 03:59N 59°54' E 010°44'0 0.0
2017-Jun-18 03:30N 59°54' E 010°44'0 0.0
2017-Jun-18 03:00N 59°54' E 010°44'0 0.0
2017-Jun-18 02:30N 59°54' E 010°44'0 0.0
2017-Jun-18 01:58N 59°54' E 010°44'0 0.0
2017-Jun-18 01:28N 59°54' E 010°44'0 0.0
2017-Jun-18 00:58N 59°54' E 010°44'0 0.0
2017-Jun-18 00:29N 59°54' E 010°44'0 0.0
2017-Jun-17 23:59N 59°54' E 010°44'0 0.0
2017-Jun-17 23:29N 59°54' E 010°44'0 0.0
2017-Jun-17 23:00N 59°54' E 010°44'0 0.0
2017-Jun-17 22:30N 59°54' E 010°44'0 0.0
2017-Jun-17 22:00N 59°54' E 010°44'0 0.0
2017-Jun-17 21:28N 59°54' E 010°44'0 0.0
2017-Jun-17 20:58N 59°54' E 010°44'0 0.0
2017-Jun-17 20:28N 59°54' E 010°44'0 0.0
2017-Jun-17 19:59N 59°54' E 010°44'0 0.0
2017-Jun-17 19:29N 59°54' E 010°44'0 0.0
2017-Jun-17 18:59N 59°54' E 010°44'0 0.0
2017-Jun-17 18:30N 59°54' E 010°44'0 0.0
2017-Jun-17 18:00N 59°54' E 010°44'0 0.0
2017-Jun-17 17:30N 59°54' E 010°44'0 0.0
2017-Jun-17 16:58N 59°54' E 010°44'0 0.0
2017-Jun-17 16:28N 59°54' E 010°44'0 0.0
2017-Jun-17 15:58N 59°54' E 010°44'0 0.0
2017-Jun-17 15:29N 59°54' E 010°44'0 0.0
2017-Jun-17 14:59N 59°54' E 010°44'0 0.0
2017-Jun-17 14:29N 59°54' E 010°44'0 0.5
2017-Jun-17 13:30N 59°54' E 010°43'2 3.6
2017-Jun-17 13:00N 59°53' E 010°40'2 4.1
2017-Jun-17 12:30N 59°52' E 010°38'2 4.8
2017-Jun-17 12:00N 59°50' E 010°35'2 4.8
2017-Jun-17 11:30N 59°47' E 010°35'2 5.0
2017-Jun-17 11:00N 59°45' E 010°35'3 6.1
2017-Jun-17 10:31N 59°42' E 010°36'3 5.8
2017-Jun-17 10:01N 59°39' E 010°38'3 5.4
2017-Jun-17 09:30N 59°36' E 010°38'3 5.1
2017-Jun-17 09:00N 59°34' E 010°38'3 5.5
2017-Jun-17 08:31N 59°32' E 010°34'3 6.0
2017-Jun-17 08:00N 59°31' E 010°28'3 6.2
2017-Jun-17 07:30N 59°30' E 010°22'2 3.9
2017-Jun-17 07:00N 59°31' E 010°19'1 2.5
2017-Jun-17 06:30N 59°32' E 010°18'0 0.4
2017-Jun-17 06:00N 59°32' E 010°19'0 0.0
2017-Jun-17 05:30N 59°32' E 010°19'0 0.0
2017-Jun-17 05:00N 59°32' E 010°19'0 0.0
2017-Jun-17 04:31N 59°32' E 010°19'0 0.0
2017-Jun-17 03:58N 59°32' E 010°19'0 0.0
2017-Jun-17 03:28N 59°32' E 010°19'0 0.0
2017-Jun-17 02:59N 59°32' E 010°19'0 0.0
2017-Jun-17 02:29N 59°32' E 010°19'0 0.0
2017-Jun-17 01:59N 59°32' E 010°19'0 0.0
2017-Jun-17 01:30N 59°32' E 010°19'0 0.0
2017-Jun-17 01:00N 59°32' E 010°19'0 0.0
2017-Jun-17 00:30N 59°32' E 010°19'0 0.0
2017-Jun-16 23:58N 59°32' E 010°19'0 0.1
2017-Jun-16 23:28N 59°32' E 010°19'0 0.0
2017-Jun-16 22:58N 59°32' E 010°18'0 0.0
2017-Jun-16 22:29N 59°32' E 010°18'0 0.0
2017-Jun-16 21:59N 59°32' E 010°18'0 0.0
2017-Jun-16 21:29N 59°32' E 010°18'0 0.0
2017-Jun-16 21:00N 59°32' E 010°18'0 0.1
2017-Jun-16 20:30N 59°32' E 010°18'0 0.0
2017-Jun-16 20:00N 59°32' E 010°18'0 0.0
2017-Jun-16 19:28N 59°32' E 010°18'0 0.0
2017-Jun-16 18:58N 59°32' E 010°18'0 0.0
2017-Jun-16 18:28N 59°32' E 010°18'0 0.0
2017-Jun-16 17:59N 59°32' E 010°18'0 0.0
2017-Jun-16 17:29N 59°32' E 010°18'0 0.0
2017-Jun-16 16:59N 59°32' E 010°18'0 0.0
2017-Jun-16 16:30N 59°32' E 010°18'0 0.0
2017-Jun-16 16:00N 59°32' E 010°18'0 0.0
2017-Jun-16 15:31N 59°32' E 010°18'  
Track history (hours):
 
Tides and Currents Weather Stations Pressure Air Temp Water Temp Dewpoint Dewpoint Depression Visibility Wind Speed Wind Dir Waves Ship Positions

Christian Radich (Norway)

Last reported at 2017-Jun-26 15:27 UTC. Time now 2017-Jun-27 10:24 UTC.
Position N 55°28' E 006°29'.

Length 73 m; draft 5 m.

Type: Sailing vessel. MMSI: 258373000.

Date/timePositionNaut miles runAvg speedWind from/ knotsBaromVisibWave heightAir tempDewpointWater temp
2017-Jun-26 15:27N 55°28' E 006°29'4 7.9
2017-Jun-26 14:59N 55°25' E 006°26'8 8.3
2017-Jun-26 14:00N 55°18' E 006°18'4 7.5
2017-Jun-26 13:30N 55°15' E 006°15'109 7.1
2017-Jun-25 22:03N 53°38' E 004°48'0 4.4
2017-Jun-25 21:57N 53°37' E 004°48'2 4.0
2017-Jun-25 21:30N 53°36' E 004°47'2 3.9
2017-Jun-25 20:59N 53°34' E 004°47'2 3.9
2017-Jun-25 20:30N 53°32' E 004°46'2 3.7
2017-Jun-25 20:00N 53°30' E 004°45'2 3.9
2017-Jun-25 19:28N 53°28' E 004°44'3 6.8
2017-Jun-25 19:00N 53°25' E 004°43'4 7.8
2017-Jun-25 18:30N 53°21' E 004°40'4 8.3
2017-Jun-25 18:00N 53°18' E 004°37'5 8.7
2017-Jun-25 17:29N 53°14' E 004°34'15 9.0
2017-Jun-25 15:48N 52°59' E 004°26'2 7.6
2017-Jun-25 15:31N 52°57' E 004°28'4 7.5
2017-Jun-25 15:01N 52°55' E 004°32'3 6.7
2017-Jun-25 14:31N 52°53' E 004°37'6 5.8
2017-Jun-25 13:31N 52°58' E 004°42'2 4.6
2017-Jun-25 13:01N 52°58' E 004°46'1 2.4
2017-Jun-25 12:31N 52°59' E 004°47'1 1.0
2017-Jun-25 12:00N 52°59' E 004°48'2 3.2
2017-Jun-25 11:29N 52°58' E 004°47'0 0.1
2017-Jun-25 11:00N 52°58' E 004°47'0 0.0
2017-Jun-25 10:30N 52°58' E 004°47'0 0.0
2017-Jun-25 10:00N 52°58' E 004°47'0 0.0
2017-Jun-25 09:30N 52°58' E 004°47'0 0.0
2017-Jun-25 08:58N 52°58' E 004°47'0 0.0
2017-Jun-25 08:28N 52°58' E 004°47'0 0.0
2017-Jun-25 07:59N 52°58' E 004°47'0 0.0
2017-Jun-25 07:29N 52°58' E 004°47'0 0.0
2017-Jun-25 06:59N 52°58' E 004°47'0 0.0
2017-Jun-25 06:29N 52°58' E 004°47'0 0.0
2017-Jun-25 06:00N 52°58' E 004°47'0 0.0
2017-Jun-25 05:30N 52°58' E 004°47'0 0.0
2017-Jun-25 05:00N 52°58' E 004°47'0 0.0
2017-Jun-25 04:28N 52°58' E 004°47'0 0.0
2017-Jun-25 03:55N 52°58' E 004°47'0 0.0
2017-Jun-25 03:28N 52°58' E 004°47'0 0.0
2017-Jun-25 02:59N 52°58' E 004°47'0 0.0
2017-Jun-25 02:29N 52°58' E 004°47'0 0.0
2017-Jun-25 01:59N 52°58' E 004°47'0 0.0
2017-Jun-25 01:30N 52°58' E 004°47'0 0.0
2017-Jun-25 01:00N 52°58' E 004°47'0 0.0
2017-Jun-25 00:30N 52°58' E 004°47'0 0.0
2017-Jun-24 23:58N 52°58' E 004°47'0 0.0
2017-Jun-24 23:28N 52°58' E 004°47'0 0.0
2017-Jun-24 22:58N 52°58' E 004°47'0 0.0
2017-Jun-24 22:29N 52°58' E 004°47'0 0.0
2017-Jun-24 21:59N 52°58' E 004°47'0 0.0
2017-Jun-24 21:29N 52°58' E 004°47'0 0.0
2017-Jun-24 21:00N 52°58' E 004°47'0 0.0
2017-Jun-24 20:30N 52°58' E 004°47'0 0.0
2017-Jun-24 20:00N 52°58' E 004°47'0 0.0
2017-Jun-24 19:28N 52°58' E 004°47'0 0.0
2017-Jun-24 18:58N 52°58' E 004°47'0 0.0
2017-Jun-24 18:28N 52°58' E 004°47'0 0.0
2017-Jun-24 17:59N 52°58' E 004°47'0 0.0
2017-Jun-24 17:29N 52°58' E 004°47'0 0.0
2017-Jun-24 16:56N 52°58' E 004°47'0 0.0
2017-Jun-24 16:30N 52°58' E 004°47'0 0.0
2017-Jun-24 16:00N 52°58' E 004°47'0 0.0
2017-Jun-24 15:27N 52°58' E 004°47'0 0.0
2017-Jun-24 15:00N 52°58' E 004°47'0 0.0
2017-Jun-24 13:58N 52°58' E 004°47'0 0.0
2017-Jun-24 13:28N 52°58' E 004°47'0 0.0
2017-Jun-24 12:59N 52°58' E 004°47'0 0.0
2017-Jun-24 12:29N 52°58' E 004°47'0 0.0
2017-Jun-24 11:59N 52°58' E 004°47'0 0.0
2017-Jun-24 11:30N 52°58' E 004°47'0 0.0
2017-Jun-24 11:00N 52°58' E 004°47'0 0.0
2017-Jun-24 10:30N 52°58' E 004°47'0 0.0
2017-Jun-24 09:58N 52°58' E 004°47'0 0.0
2017-Jun-24 09:28N 52°58' E 004°47'0 0.0
2017-Jun-24 08:58N 52°58' E 004°47'0 0.0
2017-Jun-24 08:29N 52°58' E 004°47'0 0.0
2017-Jun-24 07:59N 52°58' E 004°47'0 0.0
2017-Jun-24 07:29N 52°58' E 004°47'0 0.0
2017-Jun-24 06:59N 52°58' E 004°47'0 0.0
2017-Jun-24 06:29N 52°58' E 004°47'0 0.0
2017-Jun-24 05:59N 52°58' E 004°47'0 0.0
2017-Jun-24 05:30N 52°58' E 004°47'0 0.0
2017-Jun-24 05:00N 52°58' E 004°47'0 0.0
2017-Jun-24 04:30N 52°58' E 004°47'0 0.0
2017-Jun-24 03:58N 52°58' E 004°47'0 0.0
2017-Jun-24 03:28N 52°58' E 004°47'0 0.0
2017-Jun-24 02:58N 52°58' E 004°47'0 0.0
2017-Jun-24 02:29N 52°58' E 004°47'0 0.0
2017-Jun-24 01:59N 52°58' E 004°47'0 0.0
2017-Jun-24 01:29N 52°58' E 004°47'0 0.0
2017-Jun-24 01:00N 52°58' E 004°47'0 0.0
2017-Jun-24 00:30N 52°58' E 004°47'0 0.0
2017-Jun-24 00:00N 52°58' E 004°47'0 0.0
2017-Jun-23 23:28N 52°58' E 004°47'0 0.0
2017-Jun-23 22:58N 52°58' E 004°47'0 0.0
2017-Jun-23 22:28N 52°58' E 004°47'0 0.0
2017-Jun-23 21:59N 52°58' E 004°47'0 0.0
2017-Jun-23 21:29N 52°58' E 004°47'0 0.0
2017-Jun-23 20:59N 52°58' E 004°47'0 0.0
2017-Jun-23 20:30N 52°58' E 004°47'0 0.0
2017-Jun-23 19:57N 52°58' E 004°47'0 0.0
2017-Jun-23 19:30N 52°58' E 004°47'0 0.0
2017-Jun-23 18:58N 52°58' E 004°47'0 0.0
2017-Jun-23 18:28N 52°58' E 004°47'0 0.0
2017-Jun-23 17:58N 52°58' E 004°47'0 0.0
2017-Jun-23 17:29N 52°58' E 004°47'0 0.0
2017-Jun-23 16:59N 52°58' E 004°47'0 0.0
2017-Jun-23 16:29N 52°58' E 004°47'0 0.0
2017-Jun-23 16:00N 52°58' E 004°47'0 0.0
2017-Jun-23 15:30N 52°58' E 004°47'0 0.0
2017-Jun-23 15:00N 52°58' E 004°47'0 0.0
2017-Jun-23 13:58N 52°58' E 004°47'0 0.0
2017-Jun-23 13:28N 52°58' E 004°47'0 0.0
2017-Jun-23 12:58N 52°58' E 004°47'0 0.0
2017-Jun-23 12:29N 52°58' E 004°47'0 0.0
2017-Jun-23 11:59N 52°58' E 004°47'0 0.0
2017-Jun-23 11:29N 52°58' E 004°47'0 0.0
2017-Jun-23 11:00N 52°58' E 004°47'0 0.0
2017-Jun-23 10:30N 52°58' E 004°47'0 0.0
2017-Jun-23 10:00N 52°58' E 004°47'0 0.0
2017-Jun-23 09:28N 52°58' E 004°47'0 0.0
2017-Jun-23 08:58N 52°58' E 004°47'0 0.0
2017-Jun-23 08:28N 52°58' E 004°47'0 0.0
2017-Jun-23 07:59N 52°58' E 004°47'0 0.0
2017-Jun-23 07:29N 52°58' E 004°47'0 0.0
2017-Jun-23 06:59N 52°58' E 004°47'0 0.0
2017-Jun-23 06:30N 52°58' E 004°47'0 0.0
2017-Jun-23 06:00N 52°58' E 004°47'0 0.0
2017-Jun-23 05:30N 52°58' E 004°47'0 0.0
2017-Jun-23 04:58N 52°58' E 004°47'0 0.0
2017-Jun-23 04:28N 52°58' E 004°47'0 0.0
2017-Jun-23 03:58N 52°58' E 004°47'0 0.0
2017-Jun-23 03:29N 52°58' E 004°47'0 0.0
2017-Jun-23 02:59N 52°58' E 004°47'0 0.0
2017-Jun-23 02:29N 52°58' E 004°47'0 0.0
2017-Jun-23 02:00N 52°58' E 004°47'0 0.0
2017-Jun-23 01:30N 52°58' E 004°47'0 0.0
2017-Jun-23 01:00N 52°58' E 004°47'0 0.0
2017-Jun-23 00:30N 52°58' E 004°47'0 0.0
2017-Jun-22 23:58N 52°58' E 004°47'0 0.0
2017-Jun-22 23:28N 52°58' E 004°47'0 0.0
2017-Jun-22 22:58N 52°58' E 004°47'0 0.0
2017-Jun-22 22:29N 52°58' E 004°47'0 0.0
2017-Jun-22 21:59N 52°58' E 004°47'0 0.0
2017-Jun-22 21:29N 52°58' E 004°47'0 0.0
2017-Jun-22 21:00N 52°58' E 004°47'0 0.0
2017-Jun-22 20:30N 52°58' E 004°47'0 0.0
2017-Jun-22 20:00N 52°58' E 004°47'0 0.0
2017-Jun-22 19:28N 52°58' E 004°47'0 0.0
2017-Jun-22 18:58N 52°58' E 004°47'0 0.0
2017-Jun-22 18:25N 52°58' E 004°47'0 0.0
2017-Jun-22 17:59N 52°58' E 004°47'0 0.0
2017-Jun-22 17:29N 52°58' E 004°47'0 0.0
2017-Jun-22 16:59N 52°58' E 004°47'0 0.0
2017-Jun-22 16:30N 52°58' E 004°47'0 0.0
2017-Jun-22 16:00N 52°58' E 004°47'0 0.0
2017-Jun-22 15:30N 52°58' E 004°47'0 0.0
2017-Jun-22 14:58N 52°58' E 004°47'0 0.0
2017-Jun-22 14:28N 52°58' E 004°47'0 0.0
2017-Jun-22 13:31N 52°58' E 004°47'0 0.5
2017-Jun-22 13:01N 52°58' E 004°47'2 4.4
2017-Jun-22 12:31N 52°60' E 004°49'1 1.9
2017-Jun-22 12:00N 53°00' E 004°50'0 0.1
2017-Jun-22 11:28N 53°00' E 004°50'0 0.0
2017-Jun-22 10:58N 53°00' E 004°50'0 0.0
2017-Jun-22 10:28N 53°00' E 004°50'0 0.0
2017-Jun-22 09:59N 53°00' E 004°50'0 0.0
2017-Jun-22 09:29N 53°00' E 004°50'0 0.0
2017-Jun-22 08:59N 53°00' E 004°50'0 0.0
2017-Jun-22 08:30N 53°00' E 004°50'0 0.0
2017-Jun-22 08:00N 53°00' E 004°50'0 0.1
2017-Jun-22 07:30N 53°00' E 004°50'0 0.1
2017-Jun-22 07:01N 53°00' E 004°50'2 3.0
2017-Jun-22 06:30N 52°59' E 004°48'4 7.2
2017-Jun-22 06:00N 52°58' E 004°42'2 4.6
2017-Jun-22 05:30N 52°56' E 004°40'2 4.3
2017-Jun-22 05:00N 52°54' E 004°39'2 3.5
2017-Jun-22 04:31N 52°53' E 004°36'2 4.4
2017-Jun-22 04:00N 52°55' E 004°33'3 5.4
2017-Jun-22 03:31N 52°58' E 004°32'3 5.1
2017-Jun-22 03:00N 53°00' E 004°32'3 5.4
2017-Jun-22 02:31N 53°03' E 004°31'3 5.5
2017-Jun-22 02:00N 53°06' E 004°31'2 4.4
2017-Jun-22 01:30N 53°07' E 004°29'2 3.1
2017-Jun-22 01:00N 53°08' E 004°27'1 2.6
2017-Jun-22 00:31N 53°10' E 004°26'2 5.0
2017-Jun-22 00:00N 53°12' E 004°28'2 4.8
2017-Jun-21 23:30N 53°14' E 004°29'2 4.6
2017-Jun-21 23:00N 53°16' E 004°30'2 4.6
2017-Jun-21 22:31N 53°19' E 004°32'2 4.6
2017-Jun-21 22:00N 53°21' E 004°33'3 5.0
2017-Jun-21 21:30N 53°23' E 004°34'3 5.0
2017-Jun-21 21:00N 53°25' E 004°35'3 6.2
2017-Jun-21 20:30N 53°29' E 004°36'3 6.3
2017-Jun-21 20:00N 53°32' E 004°37'3 6.5
2017-Jun-21 19:30N 53°35' E 004°39'3 6.4
2017-Jun-21 19:00N 53°37' E 004°43'3 6.3
2017-Jun-21 18:30N 53°40' E 004°45'3 6.3
2017-Jun-21 18:00N 53°43' E 004°47'4 6.2
2017-Jun-21 17:26N 53°46' E 004°48'3 6.1
2017-Jun-21 17:00N 53°49' E 004°50'17 6.1
2017-Jun-21 14:16N 54°05' E 004°57'4 5.2
2017-Jun-21 13:30N 54°09' E 004°58'7 5.1
2017-Jun-21 12:04N 54°16' E 005°02'40 5.7
2017-Jun-21 05:06N 54°55' E 005°15'1 6.4
2017-Jun-21 05:00N 54°55' E 005°15'3 5.3
2017-Jun-21 04:30N 54°58' E 005°15'1 2.7
2017-Jun-21 04:00N 54°59' E 005°16'1 1.9
2017-Jun-21 03:30N 55°00' E 005°16'1 2.1
2017-Jun-21 03:00N 55°01' E 005°17'172 4.9
2017-Jun-19 16:10N 57°46' E 006°48'1 4.9
2017-Jun-19 15:58N 57°47' E 006°49'3 5.1
2017-Jun-19 15:28N 57°49' E 006°52'2 4.4
2017-Jun-19 15:00N 57°51' E 006°54'3 5.3
2017-Jun-19 14:30N 57°53' E 006°56'8 8.1
2017-Jun-19 13:30N 57°54' E 007°11'5 8.2
2017-Jun-19 12:51N 57°54' E 007°22'3 8.3
2017-Jun-19 12:29N 57°55' E 007°27'4 8.2
2017-Jun-19 12:00N 57°55' E 007°35'4 7.9
2017-Jun-19 11:29N 57°55' E 007°42'4 7.8
2017-Jun-19 11:00N 57°56' E 007°49'4 7.8
2017-Jun-19 10:30N 57°57' E 007°56'4 8.0
2017-Jun-19 10:00N 57°59' E 008°03'4 8.2
2017-Jun-19 09:30N 58°00' E 008°10'4 8.2
2017-Jun-19 09:00N 58°02' E 008°17'4 8.5
2017-Jun-19 08:31N 58°06' E 008°22'4 8.8
2017-Jun-19 08:01N 58°09' E 008°27'4 8.8
2017-Jun-19 07:30N 58°12' E 008°33'5 9.1
2017-Jun-19 07:00N 58°16' E 008°38'5 9.3
2017-Jun-19 06:30N 58°19' E 008°44'5 9.4
2017-Jun-19 06:00N 58°23' E 008°50'5 9.5
2017-Jun-19 05:30N 58°26' E 008°56'5 9.5
2017-Jun-19 05:00N 58°30' E 009°02'5 9.4
2017-Jun-19 04:30N 58°33' E 009°08'5 9.3
2017-Jun-19 04:01N 58°37' E 009°14'5 9.1
2017-Jun-19 03:30N 58°40' E 009°20'4 7.9
2017-Jun-19 03:00N 58°43' E 009°26'3 7.0
2017-Jun-19 02:30N 58°44' E 009°32'4 7.0
2017-Jun-19 02:00N 58°45' E 009°38'3 6.9
2017-Jun-19 01:30N 58°47' E 009°45'3 6.7
2017-Jun-19 01:00N 58°48' E 009°51'3 6.9
2017-Jun-19 00:30N 58°49' E 009°57'4 8.0
2017-Jun-19 00:00N 58°51' E 010°04'4 8.7
2017-Jun-18 23:30N 58°53' E 010°11'4 8.1
2017-Jun-18 23:00N 58°54' E 010°18'3 6.9
2017-Jun-18 22:30N 58°56' E 010°24'3 6.6
2017-Jun-18 22:00N 58°58' E 010°29'3 6.6
2017-Jun-18 21:30N 59°00' E 010°34'3 6.8
2017-Jun-18 21:01N 59°04' E 010°36'3 7.0
2017-Jun-18 20:31N 59°07' E 010°38'4 7.3
2017-Jun-18 20:01N 59°11' E 010°38'4 8.1
2017-Jun-18 19:30N 59°15' E 010°37'4 8.0
2017-Jun-18 19:00N 59°18' E 010°36'4 8.0
2017-Jun-18 18:30N 59°22' E 010°34'4 7.8
2017-Jun-18 18:00N 59°26' E 010°33'3 6.9
2017-Jun-18 17:30N 59°30' E 010°34'4 7.2
2017-Jun-18 17:00N 59°33' E 010°37'4 7.6
2017-Jun-18 16:30N 59°37' E 010°37'4 7.9
2017-Jun-18 16:00N 59°41' E 010°37'4 7.9
2017-Jun-18 15:30N 59°45' E 010°35'4 7.0
2017-Jun-18 15:00N 59°48' E 010°34'6 5.5
2017-Jun-18 14:00N 59°53' E 010°40'3 5.2
2017-Jun-18 13:30N 59°54' E 010°44'0 0.2
2017-Jun-18 12:59N 59°54' E 010°44'0 0.0
2017-Jun-18 12:30N 59°54' E 010°44'0 0.0
2017-Jun-18 12:00N 59°54' E 010°44'0 0.0
2017-Jun-18 11:30N 59°54' E 010°44'0 0.0
2017-Jun-18 10:58N 59°54' E 010°44'0 0.0
2017-Jun-18 10:28N 59°54' E 010°44'0 0.0
2017-Jun-18 09:58N 59°54' E 010°44'0 0.0
2017-Jun-18 09:29N 59°54' E 010°44'0 0.0
2017-Jun-18 08:59N 59°54' E 010°44'0 0.0
2017-Jun-18 08:29N 59°54' E 010°44'0 0.0
2017-Jun-18 08:00N 59°54' E 010°44'0 0.0
2017-Jun-18 07:30N 59°54' E 010°44'0 0.0
2017-Jun-18 07:00N 59°54' E 010°44'0 0.0
2017-Jun-18 06:28N 59°54' E 010°44'0 0.0
2017-Jun-18 05:58N 59°54' E 010°44'0 0.0
2017-Jun-18 05:28N 59°54' E 010°44'0 0.0
2017-Jun-18 04:59N 59°54' E 010°44'0 0.0
2017-Jun-18 04:29N 59°54' E 010°44'0 0.0
2017-Jun-18 03:59N 59°54' E 010°44'0 0.0
2017-Jun-18 03:30N 59°54' E 010°44'0 0.0
2017-Jun-18 03:00N 59°54' E 010°44'0 0.0
2017-Jun-18 02:30N 59°54' E 010°44'0 0.0
2017-Jun-18 01:58N 59°54' E 010°44'0 0.0
2017-Jun-18 01:28N 59°54' E 010°44'0 0.0
2017-Jun-18 00:58N 59°54' E 010°44'0 0.0
2017-Jun-18 00:29N 59°54' E 010°44'0 0.0
2017-Jun-17 23:59N 59°54' E 010°44'0 0.0
2017-Jun-17 23:29N 59°54' E 010°44'0 0.0
2017-Jun-17 23:00N 59°54' E 010°44'0 0.0
2017-Jun-17 22:30N 59°54' E 010°44'0 0.0
2017-Jun-17 22:00N 59°54' E 010°44'0 0.0
2017-Jun-17 21:28N 59°54' E 010°44'0 0.0
2017-Jun-17 20:58N 59°54' E 010°44'0 0.0
2017-Jun-17 20:28N 59°54' E 010°44'0 0.0
2017-Jun-17 19:59N 59°54' E 010°44'0 0.0
2017-Jun-17 19:29N 59°54' E 010°44'0 0.0
2017-Jun-17 18:59N 59°54' E 010°44'0 0.0
2017-Jun-17 18:30N 59°54' E 010°44'0 0.0
2017-Jun-17 18:00N 59°54' E 010°44'0 0.0
2017-Jun-17 17:30N 59°54' E 010°44'0 0.0
2017-Jun-17 16:58N 59°54' E 010°44'0 0.0
2017-Jun-17 16:28N 59°54' E 010°44'0 0.0
2017-Jun-17 15:58N 59°54' E 010°44'0 0.0
2017-Jun-17 15:29N 59°54' E 010°44'0 0.0
2017-Jun-17 14:59N 59°54' E 010°44'0 0.0
2017-Jun-17 14:29N 59°54' E 010°44'0 0.5
2017-Jun-17 13:30N 59°54' E 010°43'2 3.6
2017-Jun-17 13:00N 59°53' E 010°40'2 4.1
2017-Jun-17 12:30N 59°52' E 010°38'2 4.8
2017-Jun-17 12:00N 59°50' E 010°35'2 4.8
2017-Jun-17 11:30N 59°47' E 010°35'2 5.0
2017-Jun-17 11:00N 59°45' E 010°35'3 6.1
2017-Jun-17 10:31N 59°42' E 010°36'3 5.8
2017-Jun-17 10:01N 59°39' E 010°38'3 5.4
2017-Jun-17 09:30N 59°36' E 010°38'3 5.1
2017-Jun-17 09:00N 59°34' E 010°38'3 5.5
2017-Jun-17 08:31N 59°32' E 010°34'3 6.0
2017-Jun-17 08:00N 59°31' E 010°28'3 6.2
2017-Jun-17 07:30N 59°30' E 010°22'2 3.9
2017-Jun-17 07:00N 59°31' E 010°19'1 2.5
2017-Jun-17 06:30N 59°32' E 010°18'0 0.4
2017-Jun-17 06:00N 59°32' E 010°19'0 0.0
2017-Jun-17 05:30N 59°32' E 010°19'0 0.0
2017-Jun-17 05:00N 59°32' E 010°19'0 0.0
2017-Jun-17 04:31N 59°32' E 010°19'0 0.0
2017-Jun-17 03:58N 59°32' E 010°19'0 0.0
2017-Jun-17 03:28N 59°32' E 010°19'0 0.0
2017-Jun-17 02:59N 59°32' E 010°19'0 0.0
2017-Jun-17 02:29N 59°32' E 010°19'0 0.0
2017-Jun-17 01:59N 59°32' E 010°19'0 0.0
2017-Jun-17 01:30N 59°32' E 010°19'0 0.0
2017-Jun-17 01:00N 59°32' E 010°19'0 0.0
2017-Jun-17 00:30N 59°32' E 010°19'0 0.0
2017-Jun-16 23:58N 59°32' E 010°19'0 0.1
2017-Jun-16 23:28N 59°32' E 010°19'0 0.0
2017-Jun-16 22:58N 59°32' E 010°18'0 0.0
2017-Jun-16 22:29N 59°32' E 010°18'0 0.0
2017-Jun-16 21:59N 59°32' E 010°18'0 0.0
2017-Jun-16 21:29N 59°32' E 010°18'0 0.0
2017-Jun-16 21:00N 59°32' E 010°18'0 0.1
2017-Jun-16 20:30N 59°32' E 010°18'0 0.0
2017-Jun-16 20:00N 59°32' E 010°18'0 0.0
2017-Jun-16 19:28N 59°32' E 010°18'0 0.0
2017-Jun-16 18:58N 59°32' E 010°18'0 0.0
2017-Jun-16 18:28N 59°32' E 010°18'0 0.0
2017-Jun-16 17:59N 59°32' E 010°18'0 0.0
2017-Jun-16 17:29N 59°32' E 010°18'0 0.0
2017-Jun-16 16:59N 59°32' E 010°18'0 0.0
2017-Jun-16 16:30N 59°32' E 010°18'0 0.0
2017-Jun-16 16:00N 59°32' E 010°18'0 0.0
2017-Jun-16 15:31N 59°32' E 010°18'  

Dump ship's entire track history